createdAt,value
2023-04-18T00:01:12.779Z,16.40
2023-04-18T00:04:15.388Z,16.42
2023-04-18T00:07:18.069Z,16.40
2023-04-18T00:10:20.329Z,16.35
2023-04-18T00:13:22.873Z,16.38
2023-04-18T00:16:25.097Z,16.42
2023-04-18T00:19:27.766Z,16.45
2023-04-18T00:22:29.878Z,16.39
2023-04-18T00:25:31.973Z,16.31
2023-04-18T00:28:34.097Z,16.22
2023-04-18T00:31:36.273Z,16.22
2023-04-18T00:34:38.977Z,16.21
2023-04-18T00:37:41.129Z,16.21
2023-04-18T00:40:43.798Z,16.17
2023-04-18T00:43:45.942Z,16.17
2023-04-18T00:46:48.376Z,16.15
2023-04-18T00:49:50.591Z,16.27
2023-04-18T00:52:53.720Z,16.21
2023-04-18T00:55:55.905Z,16.27
2023-04-18T00:58:58.234Z,16.22
2023-04-18T01:02:00.671Z,16.19
2023-04-18T01:05:03.792Z,16.23
2023-04-18T01:08:06.306Z,16.19
2023-04-18T01:11:10.529Z,16.19
2023-04-18T01:14:12.932Z,16.18
2023-04-18T01:17:16.224Z,16.14
2023-04-18T01:20:21.521Z,16.18
2023-04-18T01:23:23.679Z,16.19
2023-04-18T01:26:26.029Z,16.19
2023-04-18T01:29:28.230Z,16.17
2023-04-18T01:32:34.854Z,16.18
2023-04-18T01:35:37.028Z,16.17
2023-04-18T01:38:39.131Z,16.13
2023-04-18T01:41:44.418Z,16.12
2023-04-18T01:44:46.566Z,16.15
2023-04-18T01:47:48.829Z,16.12
2023-04-18T01:50:50.991Z,16.15
2023-04-18T01:53:53.291Z,16.11
2023-04-18T01:56:55.464Z,16.09
2023-04-18T01:59:57.846Z,16.08
2023-04-18T02:03:00.161Z,16.07
2023-04-18T02:06:03.944Z,16.12
2023-04-18T02:09:06.054Z,16.10
2023-04-18T02:12:08.269Z,16.05
2023-04-18T02:15:11.094Z,16.04
2023-04-18T02:18:13.285Z,16.06
2023-04-18T02:21:15.920Z,16.06
2023-04-18T02:24:18.127Z,16.09
2023-04-18T02:27:20.617Z,16.03
2023-04-18T02:30:23.491Z,16.02
2023-04-18T02:33:25.677Z,16.05
2023-04-18T02:36:28.376Z,16.08
2023-04-18T02:39:30.803Z,16.07
2023-04-18T02:42:33.141Z,16.07
2023-04-18T02:45:36.675Z,16.04
2023-04-18T02:48:38.908Z,15.99
2023-04-18T02:51:42.228Z,16.09
2023-04-18T02:54:44.691Z,16.03
2023-04-18T02:57:51.692Z,16.00
2023-04-18T03:01:13.916Z,16.02
2023-04-18T03:04:48.284Z,16.03
2023-04-18T03:07:50.718Z,15.97
2023-04-18T03:10:56.393Z,15.98
2023-04-18T03:14:00.455Z,15.99
2023-04-18T03:17:09.405Z,16.04
2023-04-18T03:20:15.599Z,16.06
2023-04-18T03:23:17.890Z,16.01
2023-04-18T03:26:21.326Z,16.04
2023-04-18T03:29:23.574Z,16.00
2023-04-18T03:32:27.026Z,15.99
2023-04-18T03:35:29.382Z,15.95
2023-04-18T03:38:31.914Z,15.88
2023-04-18T03:41:34.080Z,15.88
2023-04-18T03:44:36.730Z,15.93
2023-04-18T03:47:39.545Z,15.91
2023-04-18T03:50:41.784Z,15.85
2023-04-18T03:53:45.655Z,15.86
2023-04-18T03:56:47.954Z,15.74
2023-04-18T03:59:51.128Z,15.71
2023-04-18T04:02:53.799Z,15.67
2023-04-18T04:05:56.908Z,15.61
2023-04-18T04:08:59.452Z,15.60
2023-04-18T04:12:03.415Z,15.56
2023-04-18T04:15:06.474Z,15.61
2023-04-18T04:18:09.820Z,15.59
2023-04-18T04:21:15.730Z,15.59
2023-04-18T04:24:30.716Z,15.58
2023-04-18T04:27:33.984Z,15.54
2023-04-18T04:30:37.314Z,15.60
2023-04-18T04:33:40.981Z,15.62
2023-04-18T04:36:51.189Z,15.64
2023-04-18T04:39:53.917Z,15.97
2023-04-18T04:43:15.515Z,15.92
2023-04-18T04:46:20.139Z,15.80
2023-04-18T04:49:25.101Z,15.78
2023-04-18T04:52:27.327Z,15.74
2023-04-18T04:55:29.747Z,15.67
2023-04-18T04:58:33.686Z,15.64
2023-04-18T05:01:46.737Z,15.67
2023-04-18T05:04:50.097Z,15.64
2023-04-18T05:07:52.270Z,15.59
2023-04-18T05:10:55.252Z,15.54
2023-04-18T05:13:57.455Z,15.56
2023-04-18T05:16:59.738Z,15.61
2023-04-18T05:20:01.914Z,15.59
2023-04-18T05:23:04.119Z,15.60
2023-04-18T05:26:06.662Z,15.61
2023-04-18T05:29:08.840Z,15.67
2023-04-18T05:32:11.920Z,15.75
2023-04-18T05:35:14.579Z,15.86
2023-04-18T05:38:16.718Z,15.88
2023-04-18T05:41:18.884Z,15.90
2023-04-18T05:44:21.282Z,16.00
2023-04-18T05:47:34.291Z,16.04
2023-04-18T05:50:39.384Z,16.09
2023-04-18T05:53:41.524Z,16.14
2023-04-18T05:56:44.337Z,16.21
2023-04-18T05:59:46.545Z,16.17
2023-04-18T06:02:49.672Z,16.21
2023-04-18T06:05:56.219Z,16.24
2023-04-18T06:09:04.648Z,16.40
2023-04-18T06:13:51.681Z,16.40
2023-04-18T06:17:38.298Z,16.51
2023-04-18T06:20:44.250Z,16.44
2023-04-18T06:23:48.575Z,16.45
2023-04-18T06:26:52.051Z,16.56
2023-04-18T06:29:59.149Z,16.49
2023-04-18T06:33:01.966Z,16.53
2023-04-18T06:36:05.661Z,16.68
2023-04-18T06:39:08.316Z,16.71
2023-04-18T06:42:13.121Z,16.76
2023-04-18T06:45:20.079Z,16.81
2023-04-18T06:48:22.737Z,16.85
2023-04-18T06:54:41.089Z,16.94
2023-04-18T06:57:43.630Z,17.04
2023-04-18T07:00:49.087Z,16.94
2023-04-18T07:03:54.540Z,17.09
2023-04-18T07:07:04.989Z,17.12
2023-04-18T07:10:09.803Z,17.13
2023-04-18T07:13:14.560Z,17.15
2023-04-18T07:16:26.595Z,17.16
2023-04-18T07:19:29.264Z,17.21
2023-04-18T07:22:31.774Z,17.24
2023-04-18T07:25:34.649Z,17.21
2023-04-18T07:28:44.096Z,17.26
2023-04-18T07:31:51.160Z,17.36
2023-04-18T07:34:58.597Z,17.41
2023-04-18T07:38:01.702Z,17.37
2023-04-18T07:41:21.105Z,17.51
2023-04-18T07:44:27.091Z,17.76
2023-04-18T07:47:30.854Z,17.77
2023-04-18T07:50:34.671Z,17.75
2023-04-18T07:53:40.599Z,17.90
2023-04-18T07:56:55.958Z,17.93
2023-04-18T08:00:03.911Z,17.90
2023-04-18T08:03:20.093Z,17.95
2023-04-18T08:06:24.086Z,18.18
2023-04-18T08:09:26.404Z,18.22
2023-04-18T08:12:28.598Z,18.30
2023-04-18T08:15:32.781Z,18.30
2023-04-18T08:18:35.840Z,18.33
2023-04-18T08:21:39.179Z,18.40
2023-04-18T08:24:46.444Z,18.46
2023-04-18T08:27:53.469Z,18.53
2023-04-18T08:30:56.625Z,18.62
2023-04-18T08:33:58.836Z,18.67
2023-04-18T08:37:01.079Z,18.75
2023-04-18T08:40:05.708Z,18.87
2023-04-18T08:43:09.421Z,18.98
2023-04-18T08:46:13.115Z,19.12
2023-04-18T08:49:17.587Z,19.21
2023-04-18T08:52:26.295Z,19.28
2023-04-18T08:55:30.611Z,19.31
2023-04-18T08:59:08.960Z,19.35
2023-04-18T09:02:14.300Z,19.21
2023-04-18T09:05:20.023Z,19.27
2023-04-18T09:08:26.044Z,19.40
2023-04-18T09:11:29.960Z,19.41
2023-04-18T09:14:32.695Z,19.40
2023-04-18T09:17:46.049Z,19.41
2023-04-18T09:20:49.826Z,19.41
2023-04-18T09:24:08.573Z,19.43
2023-04-18T09:27:14.286Z,19.45
2023-04-18T09:30:39.750Z,19.48
2023-04-18T09:33:52.804Z,19.54
2023-04-18T09:37:15.429Z,19.58
2023-04-18T09:40:22.221Z,19.63
2023-04-18T09:43:24.377Z,19.69
2023-04-18T09:46:27.837Z,19.70
2023-04-18T09:49:33.237Z,19.71
2023-04-18T09:52:40.271Z,19.75
2023-04-18T09:55:45.560Z,19.76
2023-04-18T09:59:14.047Z,19.81
2023-04-18T10:02:23.068Z,19.82
2023-04-18T10:05:32.342Z,19.87
2023-04-18T10:08:34.871Z,19.92
2023-04-18T10:11:37.269Z,20.05
2023-04-18T10:14:42.936Z,20.10
2023-04-18T10:18:00.629Z,20.16
2023-04-18T10:21:09.163Z,20.19
2023-04-18T10:24:49.971Z,20.23
2023-04-18T10:28:02.944Z,20.24
2023-04-18T10:31:05.670Z,20.25
2023-04-18T10:34:07.952Z,20.27
2023-04-18T10:37:12.730Z,20.25
2023-04-18T10:40:15.415Z,20.24
2023-04-18T10:43:17.621Z,20.26
2023-04-18T10:46:31.168Z,20.26
2023-04-18T10:49:38.065Z,20.28
2023-04-18T10:52:41.683Z,20.25
2023-04-18T10:55:44.751Z,20.30
2023-04-18T10:58:54.202Z,20.33
2023-04-18T11:02:10.126Z,20.36
2023-04-18T11:05:15.516Z,20.40
2023-04-18T11:08:24.458Z,20.43
2023-04-18T11:11:26.724Z,20.44
2023-04-18T11:14:40.298Z,20.44
2023-04-18T11:17:45.329Z,20.45
2023-04-18T11:20:51.325Z,20.48
2023-04-18T11:23:55.749Z,20.50
2023-04-18T11:26:58.416Z,20.49
2023-04-18T11:30:01.628Z,20.48
2023-04-18T11:33:13.962Z,20.51
2023-04-18T11:36:16.165Z,20.53
2023-04-18T11:39:22.301Z,20.52
2023-04-18T11:42:28.612Z,20.50
2023-04-18T11:45:31.278Z,20.46
2023-04-18T11:48:41.171Z,20.47
2023-04-18T11:51:46.326Z,20.55
2023-04-18T11:54:52.389Z,20.57
2023-04-18T11:58:01.723Z,20.64
2023-04-18T12:01:17.754Z,20.75
2023-04-18T12:04:20.543Z,20.90
2023-04-18T12:07:40.065Z,21.00
2023-04-18T12:10:50.691Z,21.16
2023-04-18T12:13:56.231Z,21.15
2023-04-18T12:16:58.649Z,21.28
2023-04-18T12:20:06.195Z,21.35
2023-04-18T12:23:08.452Z,21.35
2023-04-18T12:26:16.522Z,21.34
2023-04-18T12:29:19.047Z,21.50
2023-04-18T12:32:21.985Z,21.52
2023-04-18T12:35:25.108Z,21.53
2023-04-18T12:38:27.552Z,21.54
2023-04-18T12:41:31.903Z,21.53
2023-04-18T12:44:34.802Z,21.60
2023-04-18T12:47:41.502Z,21.69
2023-04-18T12:50:46.160Z,21.67
2023-04-18T12:53:48.270Z,21.73
2023-04-18T12:56:50.515Z,21.77
2023-04-18T12:59:52.688Z,21.80
2023-04-18T13:02:55.047Z,21.86
2023-04-18T13:05:57.270Z,21.81
2023-04-18T13:08:59.387Z,21.89
2023-04-18T13:12:02.510Z,21.91
2023-04-18T13:15:06.806Z,21.87
2023-04-18T13:18:09.130Z,21.97
2023-04-18T13:21:11.294Z,21.84
2023-04-18T13:24:13.521Z,21.84
2023-04-18T13:27:15.949Z,21.84
2023-04-18T13:30:18.210Z,21.88
2023-04-18T13:33:20.621Z,22.00
2023-04-18T13:36:23.998Z,21.85
2023-04-18T13:39:26.605Z,21.94
2023-04-18T13:42:28.836Z,22.01
2023-04-18T13:45:30.999Z,22.06
2023-04-18T13:48:33.104Z,22.12
2023-04-18T13:51:35.331Z,22.16
2023-04-18T13:54:37.730Z,22.19
2023-04-18T13:57:41.133Z,22.17
2023-04-18T14:00:43.454Z,22.24
2023-04-18T14:03:47.520Z,22.25
2023-04-18T14:06:50.495Z,22.31
2023-04-18T14:09:53.882Z,22.34
2023-04-18T14:12:56.602Z,22.45
2023-04-18T14:15:59.736Z,22.46
2023-04-18T14:19:02.402Z,22.59
2023-04-18T14:22:04.515Z,22.74
2023-04-18T14:25:10.000Z,22.93
2023-04-18T14:28:12.213Z,23.06
2023-04-18T14:31:15.289Z,23.17
2023-04-18T14:34:17.435Z,23.21
2023-04-18T14:37:19.557Z,23.31
2023-04-18T14:40:22.602Z,23.33
2023-04-18T14:43:25.212Z,23.34
2023-04-18T14:46:28.317Z,23.35
2023-04-18T14:49:30.589Z,23.38
2023-04-18T14:52:32.696Z,23.47
2023-04-18T14:55:34.883Z,23.40
2023-04-18T14:58:37.121Z,23.49
2023-04-18T15:01:41.473Z,23.41
2023-04-18T15:04:43.679Z,23.32
2023-04-18T15:07:46.924Z,23.28
2023-04-18T15:10:51.184Z,23.26
2023-04-18T15:13:53.439Z,23.19
2023-04-18T15:16:55.942Z,23.19
2023-04-18T15:20:01.414Z,23.16
2023-04-18T15:23:03.612Z,23.14
2023-04-18T15:26:06.130Z,23.12
2023-04-18T15:29:08.438Z,23.12
2023-04-18T15:32:11.021Z,23.06
2023-04-18T15:35:13.228Z,23.02
2023-04-18T15:38:15.441Z,23.04
2023-04-18T15:41:17.547Z,23.03
2023-04-18T15:44:19.814Z,22.98
2023-04-18T15:47:21.947Z,23.00
2023-04-18T15:50:24.264Z,22.96
2023-04-18T15:53:29.592Z,22.95
2023-04-18T15:56:33.601Z,22.85
2023-04-18T15:59:36.307Z,22.87
2023-04-18T16:02:38.686Z,22.88
2023-04-18T16:05:41.428Z,22.84
2023-04-18T16:08:43.614Z,22.82
2023-04-18T16:11:45.903Z,22.75
2023-04-18T16:14:48.003Z,22.65
2023-04-18T16:17:52.809Z,22.53
2023-04-18T16:20:54.938Z,22.44
2023-04-18T16:23:57.041Z,22.31
2023-04-18T16:26:59.219Z,22.33
2023-04-18T16:30:01.452Z,22.23
2023-04-18T16:33:03.974Z,22.16
2023-04-18T16:36:06.940Z,22.08
2023-04-18T16:39:09.076Z,21.98
2023-04-18T16:42:12.471Z,21.98
2023-04-18T16:45:17.262Z,21.86
2023-04-18T16:48:19.387Z,21.87
2023-04-18T16:51:24.370Z,21.86
2023-04-18T16:54:26.530Z,21.80
2023-04-18T16:57:28.695Z,21.74
2023-04-18T17:00:36.974Z,21.63
2023-04-18T17:03:40.965Z,21.57
2023-04-18T17:06:43.736Z,21.41
2023-04-18T17:09:45.949Z,21.33
2023-04-18T17:12:49.335Z,21.19
2023-04-18T17:15:51.542Z,21.12
2023-04-18T17:18:53.746Z,21.01
2023-04-18T17:21:56.087Z,20.95
2023-04-18T17:24:58.254Z,20.83
2023-04-18T17:28:02.230Z,20.74
2023-04-18T17:31:04.651Z,20.58
2023-04-18T17:34:10.909Z,20.55
2023-04-18T17:37:13.685Z,20.43
2023-04-18T17:40:15.810Z,20.38
2023-04-18T17:43:18.034Z,20.29
2023-04-18T17:46:20.359Z,20.19
2023-04-18T17:49:22.677Z,20.16
2023-04-18T17:52:24.959Z,20.16
2023-04-18T17:55:27.159Z,20.10
2023-04-18T17:58:29.808Z,20.05
2023-04-18T18:01:32.895Z,19.96
2023-04-18T18:04:35.305Z,19.91
2023-04-18T18:07:38.313Z,19.88
2023-04-18T18:10:41.280Z,19.80
2023-04-18T18:13:43.772Z,19.71
2023-04-18T18:16:46.292Z,19.68
2023-04-18T18:19:48.416Z,19.63
2023-04-18T18:22:51.378Z,19.56
2023-04-18T18:25:53.552Z,19.50
2023-04-18T18:28:55.727Z,19.45
2023-04-18T18:31:57.896Z,19.38
2023-04-18T18:35:00.179Z,19.36
2023-04-18T18:38:02.329Z,19.33
2023-04-18T18:41:04.711Z,19.34
2023-04-18T18:44:07.087Z,19.33
2023-04-18T18:47:09.264Z,19.30
2023-04-18T18:50:11.496Z,19.27
2023-04-18T18:53:16.810Z,19.28
2023-04-18T18:56:19.251Z,19.26
2023-04-18T18:59:21.404Z,19.24
2023-04-18T19:02:23.814Z,19.16
2023-04-18T19:05:26.180Z,19.17
2023-04-18T19:08:28.345Z,19.12
2023-04-18T19:11:30.657Z,19.06
2023-04-18T19:14:33.049Z,18.97
2023-04-18T19:17:35.342Z,18.97
2023-04-18T19:20:40.291Z,18.94
2023-04-18T19:23:42.482Z,18.88
2023-04-18T19:26:44.670Z,18.83
2023-04-18T19:29:46.805Z,18.77
2023-04-18T19:32:49.060Z,18.76
2023-04-18T19:35:51.605Z,18.76
2023-04-18T19:38:53.836Z,18.71
2023-04-18T19:41:56.053Z,18.67
2023-04-18T19:44:59.304Z,18.65
2023-04-18T19:48:01.531Z,18.65
2023-04-18T19:51:04.747Z,18.50
2023-04-18T19:54:07.036Z,18.59
2023-04-18T19:57:09.151Z,18.56
2023-04-18T20:00:13.032Z,18.57
2023-04-18T20:03:17.012Z,18.51
2023-04-18T20:06:20.112Z,18.51
2023-04-18T20:09:22.359Z,18.55
2023-04-18T20:12:24.554Z,18.52
2023-04-18T20:15:26.709Z,18.53
2023-04-18T20:18:30.320Z,18.44
2023-04-18T20:21:32.518Z,18.46
2023-04-18T20:24:34.905Z,18.48
2023-04-18T20:27:37.176Z,18.44
2023-04-18T20:30:39.479Z,18.43
2023-04-18T20:33:41.817Z,18.40
2023-04-18T20:36:44.689Z,18.41
2023-04-18T20:39:47.463Z,18.42
2023-04-18T20:42:49.704Z,18.40
2023-04-18T20:45:52.000Z,18.32
2023-04-18T20:48:54.156Z,18.34
2023-04-18T20:51:56.496Z,18.31
2023-04-18T20:54:58.702Z,18.31
2023-04-18T20:58:00.880Z,18.28
2023-04-18T21:01:03.169Z,18.28
2023-04-18T21:04:05.399Z,18.25
2023-04-18T21:07:07.586Z,18.29
2023-04-18T21:10:09.890Z,18.30
2023-04-18T21:13:12.661Z,18.24
2023-04-18T21:16:15.044Z,18.19
2023-04-18T21:19:17.288Z,18.17
2023-04-18T21:22:19.503Z,18.09
2023-04-18T21:25:21.707Z,18.12
2023-04-18T21:28:23.800Z,18.10
2023-04-18T21:31:27.308Z,18.13
2023-04-18T21:34:29.490Z,18.14
2023-04-18T21:37:31.937Z,18.13
2023-04-18T21:40:34.115Z,18.12
2023-04-18T21:43:36.273Z,18.04
2023-04-18T21:46:38.427Z,18.06
2023-04-18T21:49:41.796Z,18.09
2023-04-18T21:52:43.994Z,18.04
2023-04-18T21:55:46.187Z,18.01
2023-04-18T21:58:49.400Z,18.04
2023-04-18T22:01:51.623Z,18.02
2023-04-18T22:04:53.753Z,17.99
2023-04-18T22:07:58.525Z,18.00
2023-04-18T22:11:01.060Z,17.97
2023-04-18T22:14:03.274Z,17.93
2023-04-18T22:17:05.544Z,17.88
2023-04-18T22:20:08.389Z,17.87
2023-04-18T22:23:11.263Z,17.89
2023-04-18T22:26:13.542Z,17.89
2023-04-18T22:29:15.962Z,17.80
2023-04-18T22:32:18.208Z,17.81
2023-04-18T22:35:20.479Z,17.75
2023-04-18T22:38:22.588Z,17.70
2023-04-18T22:41:24.779Z,17.66
2023-04-18T22:44:27.008Z,17.66
2023-04-18T22:47:29.183Z,17.60
2023-04-18T22:50:31.405Z,17.58
2023-04-18T22:53:33.585Z,17.65
2023-04-18T22:56:35.793Z,17.60
2023-04-18T22:59:38.019Z,17.55
2023-04-18T23:02:40.726Z,17.58
2023-04-18T23:05:43.028Z,17.59
2023-04-18T23:08:45.227Z,17.60
2023-04-18T23:11:47.440Z,17.57
2023-04-18T23:14:49.705Z,17.55
2023-04-18T23:17:53.088Z,17.55
2023-04-18T23:20:55.473Z,17.61
2023-04-18T23:23:58.039Z,17.60
2023-04-18T23:27:01.477Z,17.55
2023-04-18T23:30:04.461Z,17.55
2023-04-18T23:33:06.693Z,17.48
2023-04-18T23:36:09.171Z,17.44
2023-04-18T23:39:11.504Z,17.41
2023-04-18T23:42:13.673Z,17.48
2023-04-18T23:45:15.925Z,17.44
2023-04-18T23:48:18.080Z,17.43
2023-04-18T23:51:20.338Z,17.38
2023-04-18T23:54:22.511Z,17.35
2023-04-18T23:57:24.758Z,17.40
